createdAt,value
2022-09-18T00:00:50.348Z,84.65
2022-09-18T00:06:14.857Z,84.61
2022-09-18T00:11:20.157Z,84.90
2022-09-18T00:16:25.850Z,85.19
2022-09-18T00:21:32.060Z,85.21
2022-09-18T00:26:35.882Z,85.52
2022-09-18T00:31:39.622Z,85.96
2022-09-18T00:36:44.084Z,86.18
2022-09-18T00:41:47.251Z,86.00
2022-09-18T00:46:51.329Z,86.09
2022-09-18T00:51:56.018Z,86.51
2022-09-18T00:57:02.882Z,86.36
2022-09-18T01:02:06.683Z,86.49
2022-09-18T01:07:29.325Z,86.58
2022-09-18T01:12:46.026Z,86.52
2022-09-18T01:18:07.667Z,86.76
2022-09-18T01:23:21.933Z,87.16
2022-09-18T01:28:34.279Z,87.22
2022-09-18T01:33:44.733Z,87.66
2022-09-18T01:39:05.145Z,87.68
2022-09-18T01:44:16.854Z,87.70
2022-09-18T01:49:26.511Z,88.14
2022-09-18T01:54:35.966Z,88.48
2022-09-18T01:59:48.290Z,88.19
2022-09-18T02:04:55.797Z,88.59
2022-09-18T02:09:59.522Z,88.81
2022-09-18T02:15:10.610Z,89.02
2022-09-18T02:20:21.403Z,89.21
2022-09-18T02:25:32.081Z,89.44
2022-09-18T02:30:39.409Z,89.60
2022-09-18T02:35:51.092Z,89.65
2022-09-18T02:41:11.096Z,89.74
2022-09-18T02:46:29.208Z,89.98
2022-09-18T02:51:45.774Z,89.85
2022-09-18T02:56:59.836Z,90.34
2022-09-18T03:02:03.975Z,90.23
2022-09-18T03:07:07.794Z,90.43
2022-09-18T03:12:12.101Z,90.70
2022-09-18T03:17:15.333Z,90.65
2022-09-18T03:22:18.644Z,90.79
2022-09-18T03:27:21.851Z,90.83
2022-09-18T03:32:25.161Z,90.71
2022-09-18T03:37:28.371Z,91.12
2022-09-18T03:42:31.708Z,90.91
2022-09-18T03:47:36.606Z,91.04
2022-09-18T03:52:40.247Z,91.27
2022-09-18T03:57:46.017Z,91.39
2022-09-18T04:02:49.287Z,91.67
2022-09-18T04:07:53.251Z,92.09
2022-09-18T04:12:56.877Z,92.30
2022-09-18T04:18:00.090Z,92.55
2022-09-18T04:23:03.699Z,93.11
2022-09-18T04:28:07.006Z,92.93
2022-09-18T04:33:10.216Z,92.86
2022-09-18T04:38:13.629Z,92.85
2022-09-18T04:43:16.836Z,92.89
2022-09-18T04:48:21.345Z,92.98
2022-09-18T04:53:24.694Z,93.06
2022-09-18T04:58:28.002Z,93.04
2022-09-18T05:03:31.511Z,93.13
2022-09-18T05:08:35.029Z,93.15
2022-09-18T05:13:40.341Z,93.35
2022-09-18T05:18:43.597Z,93.57
2022-09-18T05:23:47.316Z,93.67
2022-09-18T05:28:51.138Z,93.53
2022-09-18T05:33:54.656Z,93.54
2022-09-18T05:38:57.864Z,93.75
2022-09-18T05:44:01.174Z,94.03
2022-09-18T05:49:06.744Z,94.00
2022-09-18T05:54:10.048Z,93.97
2022-09-18T05:59:14.062Z,94.14
2022-09-18T06:04:17.385Z,94.23
2022-09-18T06:09:20.706Z,94.46
2022-09-18T06:14:24.419Z,94.54
2022-09-18T06:19:27.728Z,94.46
2022-09-18T06:24:31.039Z,94.08
2022-09-18T06:29:34.557Z,93.86
2022-09-18T06:34:38.864Z,93.88
2022-09-18T06:39:42.813Z,93.77
2022-09-18T06:44:46.331Z,93.63
2022-09-18T06:49:50.049Z,94.04
2022-09-18T06:54:53.359Z,94.23
2022-09-18T06:59:56.777Z,94.16
2022-09-18T07:05:01.004Z,94.22
2022-09-18T07:10:09.018Z,94.13
2022-09-18T07:15:12.738Z,94.21
2022-09-18T07:20:16.025Z,93.80
2022-09-18T07:25:19.240Z,93.88
2022-09-18T07:30:22.613Z,93.70
2022-09-18T07:35:25.993Z,93.85
2022-09-18T07:40:30.033Z,94.12
2022-09-18T07:45:33.430Z,93.56
2022-09-18T07:50:37.254Z,93.80
2022-09-18T07:55:43.227Z,93.76
2022-09-18T08:00:46.543Z,93.52
2022-09-18T08:05:49.853Z,93.57
2022-09-18T08:10:56.335Z,93.26
2022-09-18T08:16:00.018Z,93.17
2022-09-18T08:21:10.376Z,92.95
2022-09-18T08:26:20.036Z,93.21
2022-09-18T08:31:25.913Z,92.86
2022-09-18T08:36:30.853Z,92.25
2022-09-18T08:41:37.394Z,92.18
2022-09-18T08:47:05.345Z,92.03
2022-09-18T08:52:23.849Z,92.06
2022-09-18T08:57:30.335Z,92.24
2022-09-18T09:02:48.698Z,92.23
2022-09-18T09:08:28.875Z,92.39
2022-09-18T09:13:44.473Z,92.26
2022-09-18T09:18:55.874Z,91.55
2022-09-18T09:24:31.543Z,91.79
2022-09-18T09:29:37.848Z,91.53
2022-09-18T09:35:10.631Z,91.32
2022-09-18T09:40:17.031Z,91.69
2022-09-18T09:45:45.099Z,91.26
2022-09-18T09:50:57.523Z,91.15
2022-09-18T09:56:29.514Z,91.02
2022-09-18T10:01:36.547Z,91.37
2022-09-18T10:06:58.052Z,91.12
2022-09-18T10:12:09.954Z,91.32
2022-09-18T10:17:14.492Z,91.00
2022-09-18T10:22:23.359Z,90.65
2022-09-18T10:27:26.853Z,90.66
2022-09-18T10:32:39.615Z,90.74
2022-09-18T10:37:43.710Z,90.53
2022-09-18T10:42:55.345Z,90.33
2022-09-18T10:48:26.480Z,90.44
2022-09-18T10:53:33.785Z,90.45
2022-09-18T10:58:37.104Z,90.49
2022-09-18T11:04:00.066Z,90.41
2022-09-18T11:09:10.033Z,90.32
2022-09-18T11:14:25.631Z,90.44
2022-09-18T11:19:40.484Z,90.37
2022-09-18T11:24:47.319Z,90.54
2022-09-18T11:29:50.923Z,90.56
2022-09-18T11:35:02.327Z,90.44
2022-09-18T11:40:15.636Z,90.68
2022-09-18T11:45:43.353Z,90.30
2022-09-18T11:50:47.177Z,90.22
2022-09-18T11:56:04.111Z,89.93
2022-09-18T12:01:31.888Z,89.54
2022-09-18T12:07:14.522Z,89.59
2022-09-18T12:12:26.608Z,89.71
2022-09-18T12:18:05.040Z,89.18
2022-09-18T12:23:14.450Z,88.93
2022-09-18T12:28:29.472Z,89.09
2022-09-18T12:33:42.710Z,89.02
2022-09-18T12:39:04.912Z,88.70
2022-09-18T12:44:31.159Z,88.46
2022-09-18T12:49:56.480Z,88.54
2022-09-18T12:55:18.220Z,88.54
2022-09-18T13:00:22.549Z,88.34
2022-09-18T13:05:42.863Z,87.99
2022-09-18T13:10:49.368Z,87.93
2022-09-18T13:15:57.305Z,87.73
2022-09-18T13:21:05.897Z,87.65
2022-09-18T13:26:14.960Z,87.23
2022-09-18T13:31:33.266Z,87.31
2022-09-18T13:36:38.353Z,86.52
2022-09-18T13:41:51.850Z,86.11
2022-09-18T13:47:14.349Z,85.06
2022-09-18T13:52:32.921Z,84.55
2022-09-18T13:57:36.123Z,83.20
2022-09-18T14:02:44.298Z,82.08
2022-09-18T14:07:57.484Z,81.79
2022-09-18T14:13:24.651Z,81.58
2022-09-18T14:18:38.512Z,80.92
2022-09-18T14:23:47.563Z,80.83
2022-09-18T14:28:51.784Z,80.18
2022-09-18T14:33:59.361Z,80.31
2022-09-18T14:39:02.607Z,79.92
2022-09-18T14:44:07.454Z,79.37
2022-09-18T14:49:45.687Z,78.71
2022-09-18T14:54:50.739Z,78.13
2022-09-18T14:59:56.992Z,77.20
2022-09-18T15:05:03.849Z,75.42
2022-09-18T15:10:09.932Z,72.06
2022-09-18T15:15:27.844Z,69.02
2022-09-18T15:20:31.405Z,67.86
2022-09-18T15:25:44.717Z,67.26
2022-09-18T15:30:50.502Z,64.69
2022-09-18T15:35:55.839Z,64.26
2022-09-18T15:40:59.171Z,64.62
2022-09-18T15:46:08.820Z,65.06
2022-09-18T15:51:17.505Z,65.13
2022-09-18T15:56:23.751Z,65.85
2022-09-18T16:01:45.929Z,66.01
2022-09-18T16:06:53.750Z,66.27
2022-09-18T16:11:57.027Z,66.68
2022-09-18T16:17:29.423Z,66.56
2022-09-18T16:22:41.024Z,67.42
2022-09-18T16:27:47.899Z,67.93
2022-09-18T16:32:59.010Z,67.99
2022-09-18T16:38:02.298Z,69.82
2022-09-18T16:43:05.941Z,70.30
2022-09-18T16:48:09.256Z,70.98
2022-09-18T16:53:12.664Z,72.08
2022-09-18T16:58:20.791Z,73.04
2022-09-18T17:03:26.687Z,74.28
2022-09-18T17:08:30.890Z,74.97
2022-09-18T17:13:33.995Z,75.64
2022-09-18T17:18:37.216Z,76.26
2022-09-18T17:23:40.616Z,76.88
2022-09-18T17:28:44.850Z,77.44
2022-09-18T17:33:48.058Z,78.71
2022-09-18T17:38:52.188Z,78.25
2022-09-18T17:43:55.499Z,78.81
2022-09-18T17:49:00.093Z,78.99
2022-09-18T17:54:05.193Z,79.70
2022-09-18T17:59:11.575Z,79.92
2022-09-18T18:04:15.092Z,80.07
2022-09-18T18:09:18.505Z,80.56
2022-09-18T18:14:25.506Z,80.85
2022-09-18T18:19:28.819Z,81.50
2022-09-18T18:24:32.125Z,81.60
2022-09-18T18:29:35.947Z,82.30
2022-09-18T18:34:39.260Z,82.50
2022-09-18T18:39:42.630Z,82.99
2022-09-18T18:44:46.289Z,83.79
2022-09-18T18:49:50.112Z,84.46
2022-09-18T18:54:53.730Z,84.78
2022-09-18T18:59:57.653Z,85.09
2022-09-18T19:05:03.730Z,85.28
2022-09-18T19:10:08.291Z,85.53
2022-09-18T19:15:11.681Z,85.74
2022-09-18T19:20:21.704Z,86.26
2022-09-18T19:25:27.010Z,86.48
2022-09-18T19:30:30.419Z,86.76
2022-09-18T19:35:37.416Z,87.22
2022-09-18T19:40:42.472Z,87.34
2022-09-18T19:45:48.627Z,87.60
2022-09-18T19:50:53.256Z,87.81
2022-09-18T19:55:56.701Z,87.87
2022-09-18T20:01:01.915Z,87.97
2022-09-18T20:06:06.627Z,88.47
2022-09-18T20:11:09.911Z,88.30
2022-09-18T20:16:13.323Z,88.59
2022-09-18T20:21:19.078Z,89.12
2022-09-18T20:26:22.302Z,89.48
2022-09-18T20:31:25.888Z,89.89
2022-09-18T20:36:31.074Z,90.08
2022-09-18T20:41:35.877Z,90.02
2022-09-18T20:46:39.889Z,90.16
2022-09-18T20:51:43.361Z,90.76
2022-09-18T20:56:47.348Z,91.17
2022-09-18T21:01:52.052Z,91.63
2022-09-18T21:07:00.361Z,91.60
2022-09-18T21:12:03.678Z,91.86
2022-09-18T21:17:08.929Z,92.03
2022-09-18T21:22:12.241Z,92.37
2022-09-18T21:27:15.549Z,92.56
2022-09-18T21:32:19.065Z,92.69
2022-09-18T21:37:22.274Z,92.96
2022-09-18T21:42:26.301Z,93.25
2022-09-18T21:47:30.124Z,93.43
2022-09-18T21:52:33.379Z,93.60
2022-09-18T21:57:37.260Z,93.83
2022-09-18T22:02:41.390Z,94.06
2022-09-18T22:07:45.007Z,94.15
2022-09-18T22:12:48.830Z,94.29
2022-09-18T22:17:52.448Z,94.63
2022-09-18T22:22:55.862Z,94.52
2022-09-18T22:27:59.276Z,94.79
2022-09-18T22:33:03.406Z,94.82
2022-09-18T22:38:06.616Z,95.16
2022-09-18T22:43:10.541Z,95.33
2022-09-18T22:48:13.849Z,95.14
2022-09-18T22:53:17.471Z,95.72
2022-09-18T22:58:20.780Z,95.52
2022-09-18T23:03:23.992Z,95.75
2022-09-18T23:08:31.453Z,95.78
2022-09-18T23:13:48.479Z,95.78
2022-09-18T23:18:54.497Z,96.20
2022-09-18T23:23:59.760Z,96.37
2022-09-18T23:29:10.031Z,96.17
2022-09-18T23:34:17.132Z,96.68
2022-09-18T23:39:22.764Z,96.75
2022-09-18T23:44:28.873Z,96.83
2022-09-18T23:49:32.287Z,96.83
2022-09-18T23:54:35.494Z,96.94
2022-09-18T23:59:38.805Z,97.22
